createdAt,value
2023-01-17T00:02:15.096Z,2.11
2023-01-17T00:05:01.811Z,2.09
2023-01-17T00:07:49.103Z,2.03
2023-01-17T00:10:18.781Z,1.98
2023-01-17T00:13:04.931Z,1.96
2023-01-17T00:15:33.116Z,1.94
2023-01-17T00:18:01.349Z,1.90
2023-01-17T00:20:50.281Z,1.86
2023-01-17T00:23:40.535Z,1.78
2023-01-17T00:26:18.360Z,1.71
2023-01-17T00:28:47.277Z,1.66
2023-01-17T00:31:16.864Z,1.65
2023-01-17T00:33:45.461Z,1.56
2023-01-17T00:36:13.775Z,1.46
2023-01-17T00:38:42.156Z,1.34
2023-01-17T00:41:14.859Z,1.23
2023-01-17T00:44:01.783Z,1.12
2023-01-17T00:46:48.444Z,1.02
2023-01-17T00:49:35.239Z,1.02
2023-01-17T00:52:22.115Z,1.03
2023-01-17T00:55:08.697Z,1.04
2023-01-17T00:57:55.522Z,1.08
2023-01-17T01:00:42.628Z,1.09
2023-01-17T01:03:30.948Z,1.09
2023-01-17T01:06:17.893Z,1.08
2023-01-17T01:09:04.872Z,1.07
2023-01-17T01:11:51.947Z,1.06
2023-01-17T01:14:39.008Z,1.08
2023-01-17T01:17:25.927Z,1.09
2023-01-17T01:20:12.601Z,1.07
2023-01-17T01:22:59.418Z,1.04
2023-01-17T01:25:46.606Z,0.99
2023-01-17T01:28:34.158Z,0.94
2023-01-17T01:31:22.687Z,0.92
2023-01-17T01:33:52.431Z,0.91
2023-01-17T01:36:21.142Z,0.89
2023-01-17T01:38:50.522Z,0.87
2023-01-17T01:41:18.804Z,0.84
2023-01-17T01:43:54.958Z,0.85
2023-01-17T01:46:40.148Z,0.83
2023-01-17T01:49:21.723Z,0.81
2023-01-17T01:51:54.441Z,0.77
2023-01-17T01:54:30.709Z,0.73
2023-01-17T01:57:03.628Z,0.73
2023-01-17T01:59:33.750Z,0.73
2023-01-17T02:02:02.238Z,0.79
2023-01-17T02:04:30.575Z,0.82
2023-01-17T02:07:11.265Z,0.86
2023-01-17T02:09:39.318Z,0.91
2023-01-17T02:12:09.114Z,0.95
2023-01-17T02:14:37.277Z,0.95
2023-01-17T02:17:08.164Z,0.90
2023-01-17T02:19:58.256Z,0.83
2023-01-17T02:22:51.703Z,0.75
2023-01-17T02:25:57.460Z,0.64
2023-01-17T02:28:37.668Z,0.69
2023-01-17T02:31:12.284Z,0.72
2023-01-17T02:34:06.407Z,0.76
2023-01-17T02:36:44.779Z,0.81
2023-01-17T02:39:24.340Z,0.84
2023-01-17T02:41:58.127Z,0.84
2023-01-17T02:44:26.279Z,0.84
2023-01-17T02:46:56.836Z,0.84
2023-01-17T02:49:31.092Z,0.88
2023-01-17T02:52:10.957Z,0.93
2023-01-17T02:55:06.945Z,1.00
2023-01-17T02:57:44.489Z,1.08
2023-01-17T03:00:48.140Z,1.15
2023-01-17T03:03:27.791Z,1.18
2023-01-17T03:06:12.089Z,1.15
2023-01-17T03:08:43.036Z,1.18
2023-01-17T03:11:12.336Z,1.20
2023-01-17T03:13:41.293Z,1.20
2023-01-17T03:16:18.831Z,1.20
2023-01-17T03:18:47.471Z,1.16
2023-01-17T03:21:15.878Z,1.13
2023-01-17T03:23:44.373Z,1.15
2023-01-17T03:26:12.825Z,1.19
2023-01-17T03:28:41.166Z,1.27
2023-01-17T03:31:09.913Z,1.34
2023-01-17T03:33:38.016Z,1.41
2023-01-17T03:36:06.316Z,1.45
2023-01-17T03:38:34.446Z,1.46
2023-01-17T03:41:02.568Z,1.47
2023-01-17T03:43:30.816Z,1.44
2023-01-17T03:46:04.359Z,1.44
2023-01-17T03:48:33.120Z,1.38
2023-01-17T03:51:01.342Z,1.35
2023-01-17T03:53:29.425Z,1.41
2023-01-17T03:55:57.664Z,1.50
2023-01-17T03:58:25.847Z,1.63
2023-01-17T04:00:54.155Z,1.87
2023-01-17T04:03:22.533Z,2.15
2023-01-17T04:05:50.604Z,2.41
2023-01-17T04:08:19.047Z,2.69
2023-01-17T04:10:47.477Z,2.95
2023-01-17T04:13:16.852Z,3.23
2023-01-17T04:15:48.593Z,3.42
2023-01-17T04:18:18.268Z,3.56
2023-01-17T04:20:46.924Z,3.64
2023-01-17T04:23:15.054Z,3.74
2023-01-17T04:25:43.486Z,3.83
2023-01-17T04:28:12.282Z,3.96
2023-01-17T04:30:40.619Z,4.05
2023-01-17T04:33:08.841Z,4.18
2023-01-17T04:35:36.991Z,4.28
2023-01-17T04:38:05.124Z,4.37
2023-01-17T04:40:35.348Z,4.43
2023-01-17T04:43:03.422Z,4.46
2023-01-17T04:45:31.582Z,4.46
2023-01-17T04:48:06.477Z,4.50
2023-01-17T04:50:34.614Z,4.53
2023-01-17T04:53:02.812Z,4.52
2023-01-17T04:55:31.241Z,4.55
2023-01-17T04:57:59.415Z,4.62
2023-01-17T05:00:27.549Z,4.65
2023-01-17T05:02:55.853Z,4.65
2023-01-17T05:05:24.053Z,4.62
2023-01-17T05:07:56.691Z,4.59
2023-01-17T05:10:25.675Z,4.57
2023-01-17T05:12:58.311Z,4.54
2023-01-17T05:15:27.271Z,4.54
2023-01-17T05:17:56.084Z,4.51
2023-01-17T05:20:26.231Z,4.46
2023-01-17T05:22:58.463Z,4.36
2023-01-17T05:25:29.503Z,4.26
2023-01-17T05:28:00.226Z,4.17
2023-01-17T05:30:31.165Z,4.09
2023-01-17T05:32:59.911Z,4.01
2023-01-17T05:35:32.715Z,3.95
2023-01-17T05:38:01.530Z,3.91
2023-01-17T05:40:32.197Z,3.92
2023-01-17T05:43:01.766Z,3.93
2023-01-17T05:45:31.964Z,3.92
2023-01-17T05:48:01.054Z,3.87
2023-01-17T05:50:33.866Z,3.83
2023-01-17T05:53:07.278Z,3.78
2023-01-17T05:55:36.505Z,3.74
2023-01-17T05:58:05.410Z,3.73
2023-01-17T06:00:35.073Z,3.76
2023-01-17T06:03:05.025Z,3.87
2023-01-17T06:05:34.961Z,3.98
2023-01-17T06:08:03.978Z,4.13
2023-01-17T06:10:33.380Z,4.23
2023-01-17T06:13:16.760Z,4.34
2023-01-17T06:15:45.092Z,4.39
2023-01-17T06:18:17.119Z,4.40
2023-01-17T06:20:45.681Z,4.40
2023-01-17T06:23:14.986Z,4.57
2023-01-17T06:25:46.136Z,4.76
2023-01-17T06:28:18.009Z,4.87
2023-01-17T06:30:47.050Z,4.93
2023-01-17T06:33:16.284Z,5.01
2023-01-17T06:35:51.076Z,5.06
2023-01-17T06:38:20.520Z,5.11
2023-01-17T06:40:49.189Z,5.15
2023-01-17T06:43:17.535Z,5.18
2023-01-17T06:45:45.864Z,5.15
2023-01-17T06:48:14.343Z,5.16
2023-01-17T06:50:42.641Z,5.21
2023-01-17T06:53:11.326Z,5.21
2023-01-17T06:55:41.529Z,5.18
2023-01-17T06:58:10.463Z,5.10
2023-01-17T07:00:41.089Z,5.02
2023-01-17T07:03:20.146Z,4.94
2023-01-17T07:05:49.281Z,4.89
2023-01-17T07:08:18.946Z,4.92
2023-01-17T07:10:48.592Z,4.98
2023-01-17T07:13:16.922Z,4.99
2023-01-17T07:15:45.015Z,5.02
2023-01-17T07:18:13.368Z,5.02
2023-01-17T07:20:44.295Z,5.02
2023-01-17T07:23:18.917Z,5.09
2023-01-17T07:25:55.513Z,5.14
2023-01-17T07:28:25.338Z,5.15
2023-01-17T07:30:54.727Z,5.16
2023-01-17T07:33:23.149Z,5.18
2023-01-17T07:35:51.832Z,5.22
2023-01-17T07:38:20.493Z,5.27
2023-01-17T07:40:48.842Z,5.34
2023-01-17T07:43:19.106Z,5.40
2023-01-17T07:45:50.982Z,5.48
2023-01-17T07:48:21.567Z,5.51
2023-01-17T07:50:57.156Z,5.47
2023-01-17T07:53:27.098Z,5.51
2023-01-17T07:55:56.286Z,5.59
2023-01-17T07:58:25.296Z,5.70
2023-01-17T08:00:53.707Z,5.79
2023-01-17T08:03:21.947Z,5.89
2023-01-17T08:05:56.317Z,5.92
2023-01-17T08:08:24.901Z,5.96
2023-01-17T08:10:53.684Z,5.93
2023-01-17T08:13:25.290Z,5.95
2023-01-17T08:15:54.953Z,5.97
2023-01-17T08:18:24.637Z,6.09
2023-01-17T08:20:54.495Z,6.31
2023-01-17T08:23:23.394Z,6.73
2023-01-17T08:25:51.632Z,6.80
2023-01-17T08:28:21.169Z,6.77
2023-01-17T08:30:49.279Z,7.52
2023-01-17T08:33:17.350Z,8.69
2023-01-17T08:35:54.903Z,9.30
2023-01-17T08:38:23.978Z,8.82
2023-01-17T08:40:52.296Z,8.31
2023-01-17T08:43:20.624Z,7.85
2023-01-17T08:45:50.376Z,7.51
2023-01-17T08:48:18.498Z,7.31
2023-01-17T08:50:47.131Z,7.19
2023-01-17T08:53:15.927Z,7.18
2023-01-17T08:55:45.074Z,7.22
2023-01-17T08:58:13.935Z,7.64
2023-01-17T09:00:42.346Z,8.02
2023-01-17T09:03:14.569Z,8.46
2023-01-17T09:05:43.041Z,8.99
2023-01-17T09:08:11.586Z,9.26
2023-01-17T09:10:39.874Z,9.49
2023-01-17T09:13:08.786Z,9.56
2023-01-17T09:15:37.675Z,9.50
2023-01-17T09:18:05.888Z,9.46
2023-01-17T09:20:34.050Z,9.39
2023-01-17T09:23:04.040Z,9.31
2023-01-17T09:25:32.317Z,9.30
2023-01-17T09:28:00.509Z,9.40
2023-01-17T09:30:28.849Z,9.46
2023-01-17T09:32:59.989Z,9.41
2023-01-17T09:35:28.489Z,9.46
2023-01-17T09:37:57.392Z,9.60
2023-01-17T09:40:30.068Z,9.87
2023-01-17T09:43:04.222Z,10.19
2023-01-17T09:45:34.317Z,10.40
2023-01-17T09:48:09.118Z,10.39
2023-01-17T09:51:08.793Z,10.30
2023-01-17T09:53:44.003Z,10.26
2023-01-17T09:56:17.704Z,10.34
2023-01-17T09:59:05.920Z,11.08
2023-01-17T10:01:42.966Z,12.15
2023-01-17T10:04:21.620Z,13.98
2023-01-17T10:06:59.588Z,16.10
2023-01-17T10:09:48.987Z,17.18
2023-01-17T10:12:25.497Z,18.78
2023-01-17T10:15:05.223Z,20.41
2023-01-17T10:17:56.000Z,21.09
2023-01-17T10:20:35.434Z,22.07
2023-01-17T10:23:33.437Z,22.49
2023-01-17T10:26:06.928Z,22.36
2023-01-17T10:28:42.466Z,23.42
2023-01-17T10:31:24.753Z,24.66
2023-01-17T10:33:56.087Z,23.97
2023-01-17T10:36:28.073Z,24.62
2023-01-17T10:39:01.144Z,25.71
2023-01-17T10:41:34.914Z,26.65
2023-01-17T10:44:21.712Z,27.15
2023-01-17T10:47:07.767Z,26.57
2023-01-17T10:49:40.379Z,26.19
2023-01-17T10:52:33.197Z,24.99
2023-01-17T10:55:39.273Z,23.96
2023-01-17T10:58:12.876Z,23.22
2023-01-17T11:00:57.418Z,22.79
2023-01-17T11:03:27.889Z,21.65
2023-01-17T11:06:27.459Z,20.60
2023-01-17T11:09:00.577Z,20.23
2023-01-17T11:11:51.693Z,19.48
2023-01-17T11:14:27.095Z,18.30
2023-01-17T11:17:01.227Z,17.38
2023-01-17T11:19:39.601Z,16.06
2023-01-17T11:22:14.026Z,15.73
2023-01-17T11:24:49.639Z,17.26
2023-01-17T11:27:26.517Z,18.17
2023-01-17T11:30:04.092Z,16.84
2023-01-17T11:32:34.528Z,15.87
2023-01-17T11:35:40.615Z,15.63
2023-01-17T11:38:18.137Z,14.71
2023-01-17T11:40:49.026Z,14.20
2023-01-17T11:43:22.216Z,13.07
2023-01-17T11:46:16.398Z,12.21
2023-01-17T11:48:59.786Z,12.10
2023-01-17T11:51:41.506Z,11.56
2023-01-17T11:54:33.550Z,10.68
2023-01-17T11:57:02.243Z,10.53
2023-01-17T11:59:34.746Z,10.46
2023-01-17T12:02:34.464Z,10.26
2023-01-17T12:05:18.694Z,9.94
2023-01-17T12:08:18.613Z,9.88
2023-01-17T12:11:17.173Z,9.70
2023-01-17T12:14:03.233Z,9.67
2023-01-17T12:17:09.186Z,9.58
2023-01-17T12:19:54.581Z,9.64
2023-01-17T12:22:42.472Z,9.57
2023-01-17T12:25:55.331Z,9.41
2023-01-17T12:28:44.805Z,9.20
2023-01-17T12:31:16.049Z,8.96
2023-01-17T12:34:11.250Z,8.86
2023-01-17T12:36:52.940Z,8.81
2023-01-17T12:39:27.114Z,8.79
2023-01-17T12:41:58.526Z,8.70
2023-01-17T12:44:50.171Z,8.72
2023-01-17T12:47:20.956Z,8.74
2023-01-17T12:50:04.304Z,8.69
2023-01-17T12:52:51.279Z,8.66
2023-01-17T12:55:42.179Z,8.68
2023-01-17T12:58:20.124Z,8.69
2023-01-17T13:00:56.823Z,8.72
2023-01-17T13:03:29.656Z,8.65
2023-01-17T13:05:58.214Z,8.59
2023-01-17T13:08:48.189Z,8.61
2023-01-17T13:11:28.716Z,8.61
2023-01-17T13:14:00.128Z,8.61
2023-01-17T13:16:42.043Z,8.52
2023-01-17T13:19:29.883Z,8.36
2023-01-17T13:22:00.189Z,8.25
2023-01-17T13:24:35.280Z,8.21
2023-01-17T13:27:22.903Z,8.16
2023-01-17T13:30:16.268Z,8.04
2023-01-17T13:33:16.965Z,7.96
2023-01-17T13:36:18.568Z,7.79
2023-01-17T13:39:05.367Z,7.73
2023-01-17T13:41:45.760Z,7.69
2023-01-17T13:44:24.785Z,7.61
2023-01-17T13:47:18.432Z,7.59
2023-01-17T13:49:49.595Z,7.52
2023-01-17T13:52:20.940Z,7.46
2023-01-17T13:54:53.225Z,7.44
2023-01-17T13:57:30.484Z,7.39
2023-01-17T14:00:22.478Z,7.28
2023-01-17T14:02:52.923Z,7.27
2023-01-17T14:05:42.365Z,7.22
2023-01-17T14:08:17.500Z,7.19
2023-01-17T14:10:50.296Z,7.17
2023-01-17T14:13:44.649Z,7.08
2023-01-17T14:16:22.219Z,7.03
2023-01-17T14:18:50.597Z,6.99
2023-01-17T14:21:29.133Z,6.98
2023-01-17T14:24:06.733Z,6.93
2023-01-17T14:26:42.606Z,6.85
2023-01-17T14:29:46.019Z,6.80
2023-01-17T14:32:27.436Z,6.74
2023-01-17T14:34:57.388Z,6.67
2023-01-17T14:37:44.923Z,6.56
2023-01-17T14:40:26.120Z,6.45
2023-01-17T14:43:20.426Z,6.38
2023-01-17T14:45:49.045Z,6.25
2023-01-17T14:48:21.435Z,6.20
2023-01-17T14:50:52.314Z,6.06
2023-01-17T14:53:26.143Z,6.00
2023-01-17T14:56:14.172Z,5.91
2023-01-17T14:58:42.886Z,5.80
2023-01-17T15:01:13.861Z,5.76
2023-01-17T15:03:46.919Z,5.65
2023-01-17T15:06:21.930Z,5.56
2023-01-17T15:08:54.345Z,5.54
2023-01-17T15:11:27.426Z,5.43
2023-01-17T15:14:01.979Z,5.38
2023-01-17T15:16:35.582Z,5.36
2023-01-17T15:19:12.803Z,5.35
2023-01-17T15:21:44.213Z,5.33
2023-01-17T15:24:19.833Z,5.31
2023-01-17T15:26:48.837Z,5.34
2023-01-17T15:29:41.833Z,5.41
2023-01-17T15:32:28.074Z,5.47
2023-01-17T15:34:57.105Z,5.50
2023-01-17T15:37:42.991Z,5.53
2023-01-17T15:40:23.170Z,5.55
2023-01-17T15:43:19.528Z,5.65
2023-01-17T15:45:57.275Z,5.66
2023-01-17T15:48:44.264Z,5.62
2023-01-17T15:51:13.187Z,5.59
2023-01-17T15:53:42.977Z,5.63
2023-01-17T15:56:33.088Z,5.68
2023-01-17T15:59:38.567Z,5.75
2023-01-17T16:02:25.890Z,5.78
2023-01-17T16:04:54.803Z,5.79
2023-01-17T16:07:35.553Z,5.87
2023-01-17T16:10:15.653Z,6.00
2023-01-17T16:12:43.876Z,6.06
2023-01-17T16:15:13.636Z,6.09
2023-01-17T16:17:50.784Z,6.22
2023-01-17T16:20:30.822Z,6.26
2023-01-17T16:23:00.384Z,6.23
2023-01-17T16:25:32.515Z,6.19
2023-01-17T16:28:01.262Z,6.13
2023-01-17T16:30:31.599Z,6.09
2023-01-17T16:32:59.983Z,6.03
2023-01-17T16:35:32.069Z,5.99
2023-01-17T16:38:20.653Z,5.96
2023-01-17T16:40:48.912Z,5.95
2023-01-17T16:43:19.049Z,5.99
2023-01-17T16:45:50.388Z,5.95
2023-01-17T16:48:22.850Z,5.92
2023-01-17T16:50:53.077Z,5.84
2023-01-17T16:53:24.921Z,5.80
2023-01-17T16:55:57.070Z,5.79
2023-01-17T16:58:25.724Z,5.78
2023-01-17T17:00:55.801Z,5.79
2023-01-17T17:03:24.023Z,5.74
2023-01-17T17:05:57.310Z,5.76
2023-01-17T17:08:26.358Z,5.70
2023-01-17T17:10:54.664Z,5.67
2023-01-17T17:13:22.967Z,5.63
2023-01-17T17:15:51.301Z,5.67
2023-01-17T17:18:22.139Z,5.62
2023-01-17T17:20:50.447Z,5.60
2023-01-17T17:23:18.860Z,5.57
2023-01-17T17:25:55.478Z,5.58
2023-01-17T17:28:23.774Z,5.59
2023-01-17T17:31:01.599Z,5.60
2023-01-17T17:33:29.747Z,5.60
2023-01-17T17:36:03.019Z,5.57
2023-01-17T17:38:35.055Z,5.57
2023-01-17T17:41:09.808Z,5.62
2023-01-17T17:43:40.524Z,5.61
2023-01-17T17:46:08.967Z,5.66
2023-01-17T17:48:37.542Z,5.69
2023-01-17T17:51:06.520Z,5.70
2023-01-17T17:53:34.748Z,5.70
2023-01-17T17:56:05.413Z,5.73
2023-01-17T17:58:35.465Z,5.70
2023-01-17T18:01:06.002Z,5.66
2023-01-17T18:03:34.238Z,5.62
2023-01-17T18:06:08.240Z,5.63
2023-01-17T18:08:37.680Z,5.63
2023-01-17T18:11:15.178Z,5.61
2023-01-17T18:13:43.467Z,5.65
2023-01-17T18:16:15.131Z,5.62
2023-01-17T18:18:49.645Z,5.61
2023-01-17T18:21:23.767Z,5.60
2023-01-17T18:23:54.732Z,5.59
2023-01-17T18:26:25.646Z,5.57
2023-01-17T18:28:55.851Z,5.58
2023-01-17T18:31:25.691Z,5.55
2023-01-17T18:33:59.642Z,5.53
2023-01-17T18:36:30.636Z,5.51
2023-01-17T18:39:00.776Z,5.52
2023-01-17T18:41:31.291Z,5.53
2023-01-17T18:43:59.421Z,5.55
2023-01-17T18:46:27.673Z,5.57
2023-01-17T18:48:57.173Z,5.60
2023-01-17T18:51:26.567Z,5.64
2023-01-17T18:53:54.905Z,5.68
2023-01-17T18:56:23.631Z,5.76
2023-01-17T18:58:51.799Z,5.79
2023-01-17T19:01:22.951Z,5.82
2023-01-17T19:03:53.765Z,5.85
2023-01-17T19:06:31.954Z,5.85
2023-01-17T19:09:00.447Z,5.86
2023-01-17T19:11:28.992Z,5.86
2023-01-17T19:13:57.199Z,5.82
2023-01-17T19:16:32.101Z,5.77
2023-01-17T19:19:09.225Z,5.76
2023-01-17T19:21:37.463Z,5.73
2023-01-17T19:24:06.855Z,5.73
2023-01-17T19:26:35.083Z,5.70
2023-01-17T19:29:07.143Z,5.69
2023-01-17T19:31:42.775Z,5.68
2023-01-17T19:34:14.429Z,5.68
2023-01-17T19:36:42.884Z,5.68
2023-01-17T19:39:11.486Z,5.67
2023-01-17T19:41:45.211Z,5.65
2023-01-17T19:44:15.116Z,5.66
2023-01-17T19:46:45.457Z,5.68
2023-01-17T19:49:13.692Z,5.69
2023-01-17T19:51:41.835Z,5.69
2023-01-17T19:54:10.031Z,5.71
2023-01-17T19:56:38.127Z,5.77
2023-01-17T19:59:07.253Z,5.85
2023-01-17T20:01:35.590Z,5.95
2023-01-17T20:04:04.031Z,6.04
2023-01-17T20:06:35.381Z,6.14
2023-01-17T20:09:05.163Z,6.23
2023-01-17T20:11:35.070Z,6.27
2023-01-17T20:14:05.696Z,6.28
2023-01-17T20:16:37.553Z,6.26
2023-01-17T20:19:06.331Z,6.27
2023-01-17T20:21:34.855Z,6.23
2023-01-17T20:24:06.090Z,6.20
2023-01-17T20:26:35.616Z,6.17
2023-01-17T20:29:10.897Z,6.19
2023-01-17T20:31:41.586Z,6.18
2023-01-17T20:34:12.240Z,6.19
2023-01-17T20:36:42.249Z,6.26
2023-01-17T20:39:16.020Z,6.29
2023-01-17T20:41:46.379Z,6.28
2023-01-17T20:44:15.691Z,6.40
2023-01-17T20:46:43.985Z,6.52
2023-01-17T20:49:15.761Z,6.54
2023-01-17T20:51:45.251Z,6.78
2023-01-17T20:54:16.527Z,7.16
2023-01-17T20:56:47.420Z,7.38
2023-01-17T20:59:18.948Z,7.53
2023-01-17T21:01:47.551Z,7.61
2023-01-17T21:04:16.796Z,7.65
2023-01-17T21:06:44.941Z,7.71
2023-01-17T21:09:15.257Z,7.76
2023-01-17T21:11:44.673Z,7.78
2023-01-17T21:14:13.363Z,7.80
2023-01-17T21:16:44.185Z,7.86
2023-01-17T21:19:15.090Z,7.84
2023-01-17T21:21:43.666Z,7.81
2023-01-17T21:24:16.457Z,7.77
2023-01-17T21:26:46.375Z,7.75
2023-01-17T21:29:16.364Z,7.75
2023-01-17T21:31:45.344Z,7.78
2023-01-17T21:34:13.885Z,7.81
2023-01-17T21:36:42.699Z,7.77
2023-01-17T21:39:16.413Z,7.75
2023-01-17T21:41:47.970Z,7.77
2023-01-17T21:44:21.896Z,7.83
2023-01-17T21:46:56.364Z,7.86
2023-01-17T21:49:24.967Z,7.92
2023-01-17T21:51:53.386Z,7.96
2023-01-17T21:54:44.964Z,7.99
2023-01-17T21:57:34.206Z,8.06
2023-01-17T22:00:06.856Z,8.10
2023-01-17T22:02:46.729Z,8.08
2023-01-17T22:05:16.932Z,8.07
2023-01-17T22:08:04.236Z,8.08
2023-01-17T22:10:33.001Z,8.11
2023-01-17T22:13:01.189Z,8.06
2023-01-17T22:15:29.504Z,7.99
2023-01-17T22:17:58.244Z,8.02
2023-01-17T22:20:26.851Z,8.15
2023-01-17T22:22:55.253Z,8.26
2023-01-17T22:25:23.681Z,8.26
2023-01-17T22:27:51.954Z,8.19
2023-01-17T22:30:20.231Z,8.13
2023-01-17T22:32:48.410Z,8.14
2023-01-17T22:35:16.749Z,8.23
2023-01-17T22:37:44.950Z,8.31
2023-01-17T22:40:13.426Z,8.32
2023-01-17T22:42:41.467Z,8.32
2023-01-17T22:45:10.607Z,8.27
2023-01-17T22:47:39.164Z,8.28
2023-01-17T22:50:09.141Z,8.30
2023-01-17T22:52:37.322Z,8.27
2023-01-17T22:55:06.047Z,8.25
2023-01-17T22:57:34.654Z,8.23
2023-01-17T23:00:04.349Z,8.19
2023-01-17T23:02:32.462Z,8.18
2023-01-17T23:05:01.824Z,8.19
2023-01-17T23:07:31.041Z,8.18
2023-01-17T23:09:59.269Z,8.15
2023-01-17T23:12:27.609Z,8.06
2023-01-17T23:15:14.364Z,8.00
2023-01-17T23:18:01.359Z,7.98
2023-01-17T23:20:29.527Z,7.94
2023-01-17T23:22:57.962Z,8.02
2023-01-17T23:25:26.503Z,8.01
2023-01-17T23:28:14.632Z,8.02
2023-01-17T23:30:43.089Z,8.05
2023-01-17T23:33:13.397Z,8.06
2023-01-17T23:35:44.886Z,8.08
2023-01-17T23:38:29.429Z,8.11
2023-01-17T23:41:25.325Z,8.10
2023-01-17T23:43:55.459Z,8.09
2023-01-17T23:46:25.570Z,8.04
2023-01-17T23:48:55.363Z,8.01
2023-01-17T23:51:23.597Z,7.98
2023-01-17T23:53:57.513Z,7.94
2023-01-17T23:56:25.815Z,7.88
2023-01-17T23:58:53.976Z,7.79
